createdAt,value
2018-02-12T00:02:12.340Z,4.87
2018-02-12T00:04:40.669Z,4.85
2018-02-12T00:07:09.165Z,4.32
2018-02-12T00:09:37.474Z,6.00
2018-02-12T00:12:05.799Z,4.43
2018-02-12T00:14:34.247Z,4.03
2018-02-12T00:17:03.466Z,4.30
2018-02-12T00:19:31.760Z,3.25
2018-02-12T00:22:00.175Z,3.90
2018-02-12T00:24:29.364Z,3.17
2018-02-12T00:26:57.665Z,2.80
2018-02-12T00:29:25.997Z,2.95
2018-02-12T00:31:54.360Z,2.30
2018-02-12T00:34:23.255Z,1.77
2018-02-12T00:36:51.746Z,1.60
2018-02-12T00:39:20.051Z,4.07
2018-02-12T00:41:48.373Z,1.55
2018-02-12T00:44:17.049Z,1.10
2018-02-12T00:46:45.362Z,2.65
2018-02-12T00:49:13.658Z,1.40
2018-02-12T00:51:42.301Z,1.25
2018-02-12T00:54:10.610Z,1.10
2018-02-12T00:56:39.061Z,1.10
2018-02-12T00:59:07.405Z,0.80
2018-02-12T01:01:35.700Z,0.80
2018-02-12T01:04:05.001Z,1.10
2018-02-12T01:06:33.433Z,1.35
2018-02-12T01:09:01.974Z,1.08
2018-02-12T01:11:30.592Z,1.33
2018-02-12T01:13:58.993Z,1.30
2018-02-12T01:16:27.388Z,2.20
2018-02-12T01:18:55.706Z,2.33
2018-02-12T01:21:23.997Z,1.73
2018-02-12T01:23:52.362Z,2.03
2018-02-12T01:26:20.673Z,2.20
2018-02-12T01:28:49.759Z,1.62
2018-02-12T01:31:18.999Z,2.60
2018-02-12T01:33:47.323Z,1.60
2018-02-12T01:36:15.618Z,0.85
2018-02-12T01:38:44.746Z,1.50
2018-02-12T01:41:13.063Z,0.90
2018-02-12T01:43:41.422Z,1.90
2018-02-12T01:46:09.740Z,1.70
2018-02-12T01:48:38.930Z,1.48
2018-02-12T01:51:08.068Z,1.40
2018-02-12T01:53:36.959Z,1.10
2018-02-12T01:56:05.334Z,1.10
2018-02-12T01:58:33.671Z,1.15
2018-02-12T02:01:02.014Z,1.35
2018-02-12T02:03:30.378Z,0.88
2018-02-12T02:05:58.915Z,1.35
2018-02-12T02:08:27.233Z,1.45
2018-02-12T02:10:55.543Z,1.05
2018-02-12T02:13:23.850Z,0.90
2018-02-12T02:15:52.285Z,1.10
2018-02-12T02:18:20.622Z,1.17
2018-02-12T02:20:48.914Z,1.10
2018-02-12T02:23:17.281Z,1.48
2018-02-12T02:25:45.591Z,1.20
2018-02-12T02:28:14.332Z,1.27
2018-02-12T02:30:42.654Z,1.00
2018-02-12T02:33:10.987Z,1.40
2018-02-12T02:35:39.310Z,1.30
2018-02-12T02:38:07.619Z,1.80
2018-02-12T02:40:35.933Z,1.23
2018-02-12T02:43:04.340Z,1.45
2018-02-12T02:45:32.787Z,1.25
2018-02-12T02:48:01.279Z,1.52
2018-02-12T02:50:29.578Z,1.55
2018-02-12T02:52:57.912Z,1.50
2018-02-12T02:55:26.427Z,1.75
2018-02-12T02:57:55.544Z,2.33
2018-02-12T03:00:24.641Z,1.73
2018-02-12T03:02:53.702Z,1.45
2018-02-12T03:05:22.026Z,1.70
2018-02-12T03:07:50.326Z,1.25
2018-02-12T03:10:18.719Z,1.25
2018-02-12T03:12:47.199Z,1.35
2018-02-12T03:15:23.917Z,2.17
2018-02-12T03:17:52.992Z,2.05
2018-02-12T03:20:21.288Z,2.30
2018-02-12T03:22:50.592Z,2.03
2018-02-12T03:25:19.724Z,1.67
2018-02-12T03:27:48.042Z,1.55
2018-02-12T03:30:16.580Z,1.20
2018-02-12T03:32:44.873Z,1.30
2018-02-12T03:35:13.198Z,1.10
2018-02-12T03:37:41.619Z,1.55
2018-02-12T03:40:09.925Z,1.70
2018-02-12T03:42:38.224Z,1.20
2018-02-12T03:45:07.498Z,1.55
2018-02-12T03:47:35.829Z,1.33
2018-02-12T03:50:04.146Z,1.65
2018-02-12T03:52:33.247Z,1.60
2018-02-12T03:55:01.537Z,1.45
2018-02-12T03:57:30.660Z,2.17
2018-02-12T03:59:59.354Z,1.90
2018-02-12T04:02:27.670Z,2.30
2018-02-12T04:04:56.108Z,2.20
2018-02-12T04:07:24.500Z,2.25
2018-02-12T04:09:52.823Z,1.75
2018-02-12T04:12:21.902Z,2.40
2018-02-12T04:14:50.234Z,2.03
2018-02-12T04:17:18.520Z,2.95
2018-02-12T04:19:46.960Z,2.10
2018-02-12T04:22:16.248Z,3.17
2018-02-12T04:24:45.330Z,3.60
2018-02-12T04:27:13.672Z,2.80
2018-02-12T04:29:42.883Z,2.90
2018-02-12T04:32:11.213Z,2.37
2018-02-12T04:34:39.526Z,2.58
2018-02-12T04:37:07.975Z,2.70
2018-02-12T04:39:36.392Z,3.40
2018-02-12T04:42:04.714Z,2.97
2018-02-12T04:44:33.771Z,2.60
2018-02-12T04:47:02.088Z,2.60
2018-02-12T04:49:30.400Z,2.30
2018-02-12T04:51:58.954Z,1.95
2018-02-12T04:54:28.137Z,2.33
2018-02-12T04:56:56.441Z,3.20
2018-02-12T04:59:24.748Z,2.30
2018-02-12T05:01:53.895Z,2.35
2018-02-12T05:04:22.192Z,1.75
2018-02-12T05:06:50.496Z,2.30
2018-02-12T05:09:18.937Z,2.37
2018-02-12T05:11:47.387Z,2.42
2018-02-12T05:14:16.592Z,1.62
2018-02-12T05:16:45.147Z,2.08
2018-02-12T05:19:13.486Z,2.87
2018-02-12T05:21:41.813Z,3.22
2018-02-12T05:24:11.017Z,2.45
2018-02-12T05:26:39.344Z,2.53
2018-02-12T05:29:07.662Z,2.80
2018-02-12T05:31:36.733Z,2.80
2018-02-12T05:34:05.202Z,2.45
2018-02-12T05:36:33.663Z,3.10
2018-02-12T05:39:02.048Z,2.80
2018-02-12T05:41:30.348Z,3.22
2018-02-12T05:46:33.148Z,2.42
2018-02-12T05:49:01.484Z,3.53
2018-02-12T05:51:29.899Z,3.70
2018-02-12T05:53:59.002Z,3.15
2018-02-12T05:56:27.471Z,3.17
2018-02-12T05:58:55.762Z,2.47
2018-02-12T06:01:24.858Z,2.60
2018-02-12T06:03:53.932Z,2.53
2018-02-12T06:06:22.260Z,2.53
2018-02-12T06:08:50.592Z,2.70
2018-02-12T06:11:18.947Z,2.45
2018-02-12T06:13:47.358Z,2.78
2018-02-12T06:16:16.453Z,3.10
2018-02-12T06:18:45.600Z,2.60
2018-02-12T06:21:13.922Z,3.37
2018-02-12T06:23:43.019Z,3.45
2018-02-12T06:26:12.366Z,4.15
2018-02-12T06:28:40.673Z,3.72
2018-02-12T06:31:10.501Z,2.58
2018-02-12T06:33:39.718Z,3.10
2018-02-12T06:36:08.123Z,3.25
2018-02-12T06:38:36.609Z,2.90
2018-02-12T06:41:04.915Z,2.50
2018-02-12T06:43:34.123Z,2.40
2018-02-12T06:46:02.445Z,3.05
2018-02-12T06:48:30.923Z,2.10
2018-02-12T06:50:59.300Z,2.72
2018-02-12T06:53:27.610Z,3.87
2018-02-12T06:55:55.937Z,3.25
2018-02-12T06:58:24.292Z,3.78
2018-02-12T07:00:53.382Z,3.25
2018-02-12T07:03:22.451Z,2.42
2018-02-12T07:05:50.783Z,2.87
2018-02-12T07:08:19.111Z,2.60
2018-02-12T07:10:47.410Z,3.05
2018-02-12T07:13:16.929Z,3.70
2018-02-12T07:15:45.346Z,3.80
2018-02-12T07:18:13.693Z,3.17
2018-02-12T07:20:42.007Z,4.40
2018-02-12T07:23:10.335Z,4.37
2018-02-12T07:25:39.733Z,3.42
2018-02-12T07:28:08.802Z,5.07
2018-02-12T07:30:37.133Z,4.57
2018-02-12T07:33:05.918Z,4.07
2018-02-12T07:35:34.234Z,4.45
2018-02-12T07:38:02.787Z,4.40
2018-02-12T07:40:31.131Z,4.12
2018-02-12T07:42:59.604Z,5.32
2018-02-12T07:45:28.868Z,5.90
2018-02-12T07:47:58.019Z,4.47
2018-02-12T07:50:26.434Z,5.32
2018-02-12T07:52:56.266Z,4.55
2018-02-12T07:55:24.919Z,3.05
2018-02-12T07:57:53.222Z,3.00
2018-02-12T08:00:21.550Z,2.40
2018-02-12T08:02:50.067Z,2.15
2018-02-12T08:05:18.407Z,2.67
2018-02-12T08:07:46.855Z,2.72
2018-02-12T08:10:15.950Z,2.80
2018-02-12T08:12:44.478Z,3.25
2018-02-12T08:15:12.941Z,2.30
2018-02-12T08:17:41.250Z,2.92
2018-02-12T08:20:09.624Z,3.65
2018-02-12T08:22:37.924Z,3.05
2018-02-12T08:25:06.256Z,2.47
2018-02-12T08:27:34.714Z,3.40
2018-02-12T08:30:03.859Z,3.03
2018-02-12T08:32:37.317Z,2.65
2018-02-12T08:35:05.635Z,3.00
2018-02-12T08:37:34.104Z,3.25
2018-02-12T08:40:02.561Z,2.65
2018-02-12T08:42:31.687Z,2.03
2018-02-12T08:45:00.080Z,1.75
2018-02-12T08:47:29.256Z,2.15
2018-02-12T08:49:58.272Z,2.55
2018-02-12T08:52:27.469Z,3.30
2018-02-12T08:54:56.635Z,2.58
2018-02-12T08:57:25.150Z,3.37
2018-02-12T08:59:54.320Z,3.28
2018-02-12T09:02:22.875Z,4.22
2018-02-12T09:04:51.198Z,3.30
2018-02-12T09:07:20.340Z,4.65
2018-02-12T09:09:49.444Z,4.25
2018-02-12T09:12:17.782Z,3.90
2018-02-12T09:14:46.230Z,4.37
2018-02-12T09:17:14.577Z,3.80
2018-02-12T09:19:42.881Z,4.68
2018-02-12T09:22:11.426Z,4.25
2018-02-12T09:24:39.762Z,4.85
2018-02-12T09:27:08.857Z,4.32
2018-02-12T09:29:37.191Z,6.10
2018-02-12T09:32:05.542Z,6.65
2018-02-12T09:34:33.969Z,9.25
2018-02-12T09:37:03.816Z,8.23
2018-02-12T09:39:32.279Z,9.55
2018-02-12T09:42:00.667Z,6.68
2018-02-12T09:44:29.177Z,5.78
2018-02-12T09:46:57.652Z,6.60
2018-02-12T09:49:26.215Z,5.30
2018-02-12T09:51:54.536Z,7.55
2018-02-12T09:54:23.668Z,5.90
2018-02-12T09:56:52.903Z,4.93
2018-02-12T09:59:21.371Z,6.05
2018-02-12T10:01:49.671Z,4.55
2018-02-12T10:04:18.027Z,4.53
2018-02-12T10:06:46.368Z,5.07
2018-02-12T10:09:15.516Z,4.15
2018-02-12T10:11:43.829Z,5.93
2018-02-12T10:14:12.300Z,14.27
2018-02-12T10:16:40.633Z,21.92
2018-02-12T10:19:09.015Z,19.92
2018-02-12T10:21:37.348Z,3.97
2018-02-12T10:24:05.698Z,7.85
2018-02-12T10:26:34.047Z,7.35
2018-02-12T10:29:02.503Z,5.25
2018-02-12T10:31:31.810Z,5.07
2018-02-12T10:34:00.324Z,5.05
2018-02-12T10:36:28.679Z,8.00
2018-02-12T10:38:57.031Z,16.33
2018-02-12T10:41:25.710Z,4.10
2018-02-12T10:43:54.143Z,17.73
2018-02-12T10:46:22.741Z,4.70
2018-02-12T10:48:51.821Z,5.18
2018-02-12T10:51:20.124Z,5.90
2018-02-12T10:53:48.630Z,2.83
2018-02-12T10:56:16.944Z,4.35
2018-02-12T10:58:45.442Z,2.10
2018-02-12T11:01:14.515Z,3.15
2018-02-12T11:03:42.862Z,3.10
2018-02-12T11:06:11.230Z,3.95
2018-02-12T11:08:39.620Z,3.12
2018-02-12T11:11:07.970Z,3.45
2018-02-12T11:13:37.148Z,4.35
2018-02-12T11:16:05.753Z,2.17
2018-02-12T11:18:34.827Z,2.30
2018-02-12T11:21:03.269Z,3.15
2018-02-12T11:23:31.837Z,2.83
2018-02-12T11:26:00.366Z,2.62
2018-02-12T11:28:28.936Z,1.50
2018-02-12T11:30:58.071Z,1.90
2018-02-12T11:33:27.159Z,1.95
2018-02-12T11:35:55.505Z,2.20
2018-02-12T11:38:23.102Z,2.58
2018-02-12T11:40:51.477Z,1.83
2018-02-12T11:43:19.910Z,2.25
2018-02-12T11:45:48.318Z,1.30
2018-02-12T11:48:17.482Z,3.72
2018-02-12T11:50:45.817Z,1.70
2018-02-12T11:53:14.109Z,1.70
2018-02-12T11:55:42.659Z,1.80
2018-02-12T11:58:12.058Z,1.60
2018-02-12T12:00:40.379Z,2.28
2018-02-12T12:03:08.703Z,2.25
2018-02-12T12:05:37.859Z,1.45
2018-02-12T12:08:06.319Z,1.67
2018-02-12T12:10:34.867Z,1.30
2018-02-12T12:13:03.976Z,2.12
2018-02-12T12:15:32.530Z,1.55
2018-02-12T12:18:01.158Z,2.30
2018-02-12T12:20:29.500Z,1.10
2018-02-12T12:22:59.052Z,2.72
2018-02-12T12:25:27.392Z,2.00
2018-02-12T12:27:56.548Z,1.50
2018-02-12T12:30:24.925Z,2.15
2018-02-12T12:32:53.255Z,1.30
2018-02-12T12:35:21.593Z,1.65
2018-02-12T12:37:49.994Z,1.42
2018-02-12T12:40:18.309Z,2.00
2018-02-12T12:42:46.712Z,1.50
2018-02-12T12:45:16.689Z,2.37
2018-02-12T12:47:45.145Z,1.65
2018-02-12T12:50:14.236Z,1.55
2018-02-12T12:52:42.600Z,1.75
2018-02-12T12:55:11.705Z,1.40
2018-02-12T12:57:40.948Z,1.65
2018-02-12T13:00:09.521Z,1.20
2018-02-12T13:02:37.868Z,1.40
2018-02-12T13:05:06.964Z,1.70
2018-02-12T13:07:36.106Z,1.87
2018-02-12T13:10:04.493Z,1.52
2018-02-12T13:12:33.867Z,1.65
2018-02-12T13:15:02.959Z,1.37
2018-02-12T13:17:31.284Z,1.05
2018-02-12T13:20:00.379Z,1.55
2018-02-12T13:22:29.599Z,1.20
2018-02-12T13:24:58.018Z,2.90
2018-02-12T13:27:26.394Z,1.80
2018-02-12T13:29:54.732Z,1.75
2018-02-12T13:32:23.073Z,1.73
2018-02-12T13:34:51.539Z,1.17
2018-02-12T13:37:20.072Z,1.70
2018-02-12T13:39:48.386Z,1.40
2018-02-12T13:42:16.803Z,1.20
2018-02-12T13:44:47.866Z,1.20
2018-02-12T13:47:16.467Z,1.25
2018-02-12T13:49:45.567Z,1.25
2018-02-12T13:52:13.880Z,1.25
2018-02-12T13:54:42.227Z,1.87
2018-02-12T13:57:10.585Z,1.85
2018-02-12T13:59:39.073Z,1.65
2018-02-12T14:02:07.438Z,1.40
2018-02-12T14:04:35.815Z,1.10
2018-02-12T14:07:04.361Z,1.73
2018-02-12T14:09:32.673Z,1.35
2018-02-12T14:12:00.985Z,1.50
2018-02-12T14:14:29.294Z,1.70
2018-02-12T14:16:58.420Z,1.25
2018-02-12T14:19:26.901Z,1.30
2018-02-12T14:21:55.390Z,1.42
2018-02-12T14:24:23.738Z,1.37
2018-02-12T14:26:52.101Z,1.20
2018-02-12T14:29:21.450Z,1.37
2018-02-12T14:31:49.763Z,1.70
2018-02-12T14:34:18.214Z,1.27
2018-02-12T14:36:46.544Z,1.30
2018-02-12T14:39:15.290Z,1.27
2018-02-12T14:41:43.635Z,1.20
2018-02-12T14:44:12.055Z,1.20
2018-02-12T14:46:40.381Z,1.10
2018-02-12T14:49:08.703Z,1.00
2018-02-12T14:51:37.222Z,1.23
2018-02-12T14:54:05.609Z,1.00
2018-02-12T14:56:34.056Z,1.40
2018-02-12T14:59:02.560Z,1.37
2018-02-12T15:01:30.871Z,1.48
2018-02-12T15:03:59.747Z,1.48
2018-02-12T15:06:28.552Z,1.25
2018-02-12T15:08:57.051Z,1.20
2018-02-12T15:11:25.952Z,1.70
2018-02-12T15:13:54.476Z,1.75
2018-02-12T15:16:22.944Z,1.20
2018-02-12T15:18:51.475Z,0.90
2018-02-12T15:21:20.595Z,1.20
2018-02-12T15:23:50.402Z,1.67
2018-02-12T15:26:18.957Z,1.10
2018-02-12T15:28:48.580Z,1.08
2018-02-12T15:31:17.774Z,1.23
2018-02-12T15:33:47.218Z,1.15
2018-02-12T15:36:16.238Z,1.50
2018-02-12T15:38:44.618Z,1.10
2018-02-12T15:41:13.580Z,1.40
2018-02-12T15:43:42.762Z,1.60
2018-02-12T15:46:11.595Z,1.15
2018-02-12T15:48:40.139Z,2.12
2018-02-12T15:51:08.558Z,1.65
2018-02-12T15:53:37.242Z,1.85
2018-02-12T15:56:05.561Z,1.60
2018-02-12T15:58:35.429Z,1.50
2018-02-12T16:01:03.890Z,2.25
2018-02-12T16:03:32.365Z,1.80
2018-02-12T16:06:01.570Z,1.33
2018-02-12T16:08:30.041Z,2.00
2018-02-12T16:10:58.462Z,1.25
2018-02-12T16:13:26.978Z,1.85
2018-02-12T16:15:55.523Z,1.60
2018-02-12T16:18:23.972Z,1.30
2018-02-12T16:20:52.443Z,1.12
2018-02-12T16:23:20.785Z,1.20
2018-02-12T16:25:49.207Z,1.40
2018-02-12T16:28:17.625Z,1.52
2018-02-12T16:30:47.448Z,3.00
2018-02-12T16:33:16.654Z,1.35
2018-02-12T16:35:45.211Z,1.62
2018-02-12T16:38:13.925Z,1.30
2018-02-12T16:40:42.545Z,1.70
2018-02-12T16:43:11.048Z,2.47
2018-02-12T16:45:39.437Z,1.27
2018-02-12T16:48:07.837Z,1.75
2018-02-12T16:50:36.783Z,1.20
2018-02-12T16:53:05.158Z,1.25
2018-02-12T16:55:33.540Z,1.10
2018-02-12T16:58:02.096Z,1.33
2018-02-12T17:00:30.425Z,1.30
2018-02-12T17:02:59.979Z,2.35
2018-02-12T17:05:28.338Z,1.67
2018-02-12T17:07:56.663Z,1.58
2018-02-12T17:10:25.840Z,2.25
2018-02-12T17:12:54.324Z,1.73
2018-02-12T17:15:22.644Z,1.77
2018-02-12T17:17:50.974Z,1.42
2018-02-12T17:20:19.315Z,1.60
2018-02-12T17:22:47.950Z,2.35
2018-02-12T17:25:16.336Z,1.83
2018-02-12T17:27:44.678Z,1.80
2018-02-12T17:30:13.084Z,1.60
2018-02-12T17:32:41.434Z,1.77
2018-02-12T17:35:09.760Z,2.00
2018-02-12T17:37:38.088Z,2.37
2018-02-12T17:40:06.813Z,2.53
2018-02-12T17:42:35.154Z,2.87
2018-02-12T17:45:03.483Z,2.78
2018-02-12T17:47:32.728Z,3.65
2018-02-12T17:50:01.252Z,2.35
2018-02-12T17:52:29.589Z,3.58
2018-02-12T17:54:57.950Z,3.22
2018-02-12T17:57:26.497Z,4.12
2018-02-12T17:59:56.246Z,4.40
2018-02-12T18:02:25.449Z,5.32
2018-02-12T18:04:54.437Z,8.65
2018-02-12T18:07:23.704Z,17.65
2018-02-12T18:09:52.529Z,11.73
2018-02-12T18:12:22.326Z,8.50
2018-02-12T18:14:51.267Z,6.00
2018-02-12T18:17:20.180Z,7.45
2018-02-12T18:19:49.325Z,13.45
2018-02-12T18:22:18.147Z,9.70
2018-02-12T18:24:50.825Z,11.82
2018-02-12T18:27:19.878Z,11.65
2018-02-12T18:29:48.353Z,9.13
2018-02-12T18:32:18.857Z,8.65
2018-02-12T18:34:47.484Z,7.15
2018-02-12T18:37:16.196Z,3.80
2018-02-12T18:39:45.845Z,4.80
2018-02-12T18:42:14.709Z,5.78
2018-02-12T18:44:44.802Z,10.13
2018-02-12T18:47:13.479Z,11.63
2018-02-12T18:49:42.080Z,8.23
2018-02-12T18:52:11.594Z,6.53
2018-02-12T18:54:40.039Z,6.03
2018-02-12T18:57:08.870Z,8.02
2018-02-12T18:59:37.809Z,7.90
2018-02-12T19:02:06.433Z,8.70
2018-02-12T19:04:35.816Z,7.43
2018-02-12T19:07:04.550Z,9.02
2018-02-12T19:09:33.208Z,10.45
2018-02-12T19:12:01.985Z,8.05
2018-02-12T19:14:31.426Z,10.70
2018-02-12T19:17:05.209Z,7.95
2018-02-12T19:19:33.904Z,7.10
2018-02-12T19:22:03.064Z,5.60
2018-02-12T19:24:31.997Z,6.15
2018-02-12T19:27:00.639Z,7.40
2018-02-12T19:29:29.970Z,7.47
2018-02-12T19:31:59.079Z,4.72
2018-02-12T19:34:27.963Z,4.53
2018-02-12T19:36:58.784Z,5.00
2018-02-12T19:39:27.630Z,4.95
2018-02-12T19:41:56.551Z,6.55
2018-02-12T19:44:26.609Z,5.93
2018-02-12T19:46:56.018Z,5.47
2018-02-12T19:49:25.560Z,5.65
2018-02-12T19:51:55.693Z,7.10
2018-02-12T19:54:25.211Z,5.30
2018-02-12T19:56:53.992Z,6.80
2018-02-12T19:59:23.318Z,5.80
2018-02-12T20:01:53.125Z,7.07
2018-02-12T20:04:23.777Z,5.72
2018-02-12T20:06:54.088Z,6.35
2018-02-12T20:09:23.348Z,5.72
2018-02-12T20:11:52.458Z,7.55
2018-02-12T20:14:22.085Z,6.72
2018-02-12T20:16:50.876Z,7.95
2018-02-12T20:19:20.676Z,6.95
2018-02-12T20:21:50.699Z,6.15
2018-02-12T20:24:20.278Z,5.60
2018-02-12T20:26:49.451Z,6.95
2018-02-12T20:29:18.349Z,7.40
2018-02-12T20:31:47.024Z,6.18
2018-02-12T20:34:15.633Z,5.47
2018-02-12T20:36:44.332Z,5.70
2018-02-12T20:39:17.966Z,5.47
2018-02-12T20:41:47.035Z,5.05
2018-02-12T20:44:16.454Z,5.85
2018-02-12T20:46:45.214Z,5.90
2018-02-12T20:49:14.095Z,5.10
2018-02-12T20:51:42.559Z,5.80
2018-02-12T20:54:11.142Z,5.53
2018-02-12T20:56:39.826Z,5.55
2018-02-12T20:59:08.785Z,5.40
2018-02-12T21:01:37.896Z,5.10
2018-02-12T21:04:06.924Z,5.05
2018-02-12T21:06:35.446Z,5.03
2018-02-12T21:09:03.939Z,4.90
2018-02-12T21:11:32.779Z,6.03
2018-02-12T21:14:01.237Z,5.05
2018-02-12T21:16:30.658Z,4.87
2018-02-12T21:18:59.545Z,4.62
2018-02-12T21:21:28.666Z,3.75
2018-02-12T21:23:57.440Z,4.87
2018-02-12T21:26:26.219Z,5.75
2018-02-12T21:28:54.990Z,4.97
2018-02-12T21:31:23.762Z,5.18
2018-02-12T21:33:52.732Z,4.85
2018-02-12T21:36:22.290Z,5.12
2018-02-12T21:38:51.064Z,4.37
2018-02-12T21:41:20.275Z,5.07
2018-02-12T21:43:48.955Z,4.25
2018-02-12T21:46:18.255Z,5.10
2018-02-12T21:48:46.792Z,4.07
2018-02-12T21:51:15.563Z,4.15
2018-02-12T21:53:44.111Z,4.10
2018-02-12T21:56:13.201Z,4.03
2018-02-12T21:58:42.911Z,4.65
2018-02-12T22:03:46.149Z,3.90
2018-02-12T22:06:15.877Z,4.40
2018-02-12T22:08:44.660Z,4.70
2018-02-12T22:11:14.047Z,4.82
2018-02-12T22:13:43.264Z,4.87
2018-02-12T22:16:11.653Z,4.47
2018-02-12T22:18:40.190Z,4.45
2018-02-12T22:21:08.524Z,5.55
2018-02-12T22:23:36.859Z,4.62
2018-02-12T22:26:05.208Z,5.30
2018-02-12T22:28:33.692Z,5.25
2018-02-12T22:31:02.169Z,5.00
2018-02-12T22:33:30.688Z,5.05
2018-02-12T22:35:59.113Z,4.65
2018-02-12T22:38:27.585Z,4.80
2018-02-12T22:40:55.894Z,4.78
2018-02-12T22:43:24.247Z,5.28
2018-02-12T22:45:52.572Z,4.90
2018-02-12T22:48:21.008Z,4.32
2018-02-12T22:50:49.386Z,5.15
2018-02-12T22:53:17.746Z,4.80
2018-02-12T22:55:46.093Z,4.03
2018-02-12T22:58:15.170Z,6.12
2018-02-12T23:00:44.315Z,4.60
2018-02-12T23:03:12.661Z,5.35
2018-02-12T23:05:41.737Z,5.18
2018-02-12T23:08:11.046Z,4.80
2018-02-12T23:10:39.535Z,5.43
2018-02-12T23:13:07.916Z,3.97
2018-02-12T23:15:37.016Z,4.95
2018-02-12T23:18:06.138Z,4.37
2018-02-12T23:20:34.478Z,5.12
2018-02-12T23:23:02.807Z,6.68
2018-02-12T23:25:31.185Z,4.62
2018-02-12T23:27:59.496Z,6.65
2018-02-12T23:30:28.792Z,5.95
2018-02-12T23:32:58.070Z,5.90
2018-02-12T23:35:26.624Z,4.85
2018-02-12T23:37:54.943Z,4.65
2018-02-12T23:40:24.106Z,5.35
2018-02-12T23:42:52.467Z,4.32
2018-02-12T23:45:20.773Z,5.25
2018-02-12T23:47:49.126Z,5.00
2018-02-12T23:50:17.539Z,4.90
2018-02-12T23:52:45.997Z,5.03
2018-02-12T23:55:14.563Z,5.45
2018-02-12T23:57:42.900Z,4.70
